Terminal Aerodrome Forecast
Issued by NWS

Home | Current Version | Previous Version | Text Only | Print | Product List | Glossary On
Versions: 1 2 3 4 5 6 7 8 9 10 11 12 13 14 15 16 17 18 19 20 21 22 23 24 25 26
000
FTAK31 PAFA 280535
TAFAGA
TAF
PAGA 280535Z 2806/2906 VRB04KT P6SM SCT035 BKN060
     FM281200 11003KT P6SM -SHRA SCT025 OVC050
     FM282100 VRB03KT P6SM VCSH BKN050
      AMD NOT SKED=

USA.gov is the U.S. government's official web portal to all federal, state and local government web resources and services.